createdAt,value
2022-08-03T00:02:19.795Z,2.70
2022-08-03T00:04:47.447Z,2.90
2022-08-03T00:07:15.083Z,3.25
2022-08-03T00:09:42.474Z,2.90
2022-08-03T00:12:10.089Z,3.20
2022-08-03T00:14:37.492Z,2.90
2022-08-03T00:17:04.698Z,3.42
2022-08-03T00:19:31.950Z,3.03
2022-08-03T00:21:59.149Z,2.80
2022-08-03T00:24:26.375Z,3.08
2022-08-03T00:26:53.669Z,2.92
2022-08-03T00:29:20.869Z,2.83
2022-08-03T00:31:52.440Z,3.35
2022-08-03T00:34:36.553Z,3.25
2022-08-03T00:37:11.892Z,2.80
2022-08-03T00:39:39.192Z,3.35
2022-08-03T00:42:06.909Z,3.28
2022-08-03T00:44:40.814Z,2.83
2022-08-03T00:47:10.246Z,3.00
2022-08-03T00:49:39.029Z,3.42
2022-08-03T00:52:11.511Z,3.40
2022-08-03T00:54:39.420Z,2.60
2022-08-03T00:57:07.909Z,2.40
2022-08-03T00:59:35.317Z,2.78
2022-08-03T01:02:02.675Z,2.90
2022-08-03T01:04:29.923Z,2.92
2022-08-03T01:07:13.675Z,3.22
2022-08-03T01:09:52.818Z,3.40
2022-08-03T01:12:37.180Z,2.67
2022-08-03T01:15:20.387Z,2.47
2022-08-03T01:17:53.859Z,2.67
2022-08-03T01:20:24.096Z,2.75
2022-08-03T01:23:03.076Z,3.33
2022-08-03T01:25:56.489Z,2.95
2022-08-03T01:28:50.248Z,2.60
2022-08-03T01:31:23.839Z,3.10
2022-08-03T01:33:57.278Z,2.80
2022-08-03T01:36:29.861Z,3.08
2022-08-03T01:39:02.058Z,2.08
2022-08-03T01:41:35.198Z,2.67
2022-08-03T01:44:29.239Z,2.70
2022-08-03T01:46:54.357Z,2.80
2022-08-03T01:49:22.426Z,2.53
2022-08-03T01:52:03.430Z,2.88
2022-08-03T01:54:37.625Z,2.97
2022-08-03T01:57:05.862Z,2.88
2022-08-03T01:59:35.568Z,2.67
2022-08-03T02:02:28.009Z,2.60
2022-08-03T02:04:55.630Z,3.10
2022-08-03T02:07:24.707Z,2.42
2022-08-03T02:09:54.149Z,2.35
2022-08-03T02:12:24.880Z,2.80
2022-08-03T02:14:52.761Z,2.28
2022-08-03T02:17:38.760Z,2.45
2022-08-03T02:20:10.838Z,3.17
2022-08-03T02:22:42.773Z,2.47
2022-08-03T02:25:12.195Z,2.50
2022-08-03T02:28:10.392Z,2.58
2022-08-03T02:30:40.939Z,2.50
2022-08-03T02:33:12.724Z,2.78
2022-08-03T02:35:41.909Z,2.75
2022-08-03T02:38:11.298Z,2.78
2022-08-03T02:40:40.567Z,2.45
2022-08-03T02:43:17.837Z,2.65
2022-08-03T02:45:48.099Z,2.45
2022-08-03T02:48:23.167Z,2.28
2022-08-03T02:50:54.725Z,2.78
2022-08-03T02:53:23.863Z,2.40
2022-08-03T02:55:52.451Z,2.55
2022-08-03T02:58:24.019Z,2.97
2022-08-03T03:00:52.134Z,2.42
2022-08-03T03:03:20.814Z,2.80
2022-08-03T03:05:51.792Z,3.00
2022-08-03T03:08:26.163Z,2.72
2022-08-03T03:10:58.359Z,2.50
2022-08-03T03:13:26.909Z,2.75
2022-08-03T03:15:56.511Z,2.20
2022-08-03T03:18:24.936Z,3.30
2022-08-03T03:20:53.905Z,2.78
2022-08-03T03:23:26.714Z,3.00
2022-08-03T03:25:56.022Z,2.65
2022-08-03T03:28:24.846Z,2.92
2022-08-03T03:30:53.295Z,2.88
2022-08-03T03:33:22.545Z,2.85
2022-08-03T03:35:51.745Z,2.90
2022-08-03T03:38:20.131Z,2.92
2022-08-03T03:40:49.118Z,2.58
2022-08-03T03:43:18.446Z,2.38
2022-08-03T03:45:47.332Z,2.50
2022-08-03T03:48:15.032Z,2.63
2022-08-03T03:50:43.774Z,2.58
2022-08-03T03:53:12.523Z,2.55
2022-08-03T03:56:02.114Z,2.85
2022-08-03T03:58:28.632Z,3.10
2022-08-03T04:00:56.053Z,3.33
2022-08-03T04:03:23.432Z,2.88
2022-08-03T04:06:09.868Z,2.30
2022-08-03T04:08:55.731Z,3.00
2022-08-03T04:11:51.663Z,3.10
2022-08-03T04:14:26.640Z,2.95
2022-08-03T04:16:58.186Z,3.10
2022-08-03T04:19:32.263Z,2.63
2022-08-03T04:22:03.043Z,3.42
2022-08-03T04:24:35.608Z,2.60
2022-08-03T04:27:06.828Z,2.58
2022-08-03T04:29:38.696Z,2.70
2022-08-03T04:32:16.846Z,2.50
2022-08-03T04:34:44.569Z,2.50
2022-08-03T04:37:14.920Z,2.78
2022-08-03T04:39:42.755Z,2.63
2022-08-03T04:42:12.729Z,2.35
2022-08-03T04:44:42.557Z,3.00
2022-08-03T04:47:09.866Z,2.85
2022-08-03T04:49:38.399Z,3.22
2022-08-03T04:52:07.961Z,2.95
2022-08-03T04:54:50.645Z,2.67
2022-08-03T04:57:22.914Z,2.40
2022-08-03T05:00:01.026Z,3.22
2022-08-03T05:02:29.378Z,2.97
2022-08-03T05:04:56.689Z,3.38
2022-08-03T05:07:24.799Z,2.80
2022-08-03T05:10:01.610Z,3.45
2022-08-03T05:12:33.129Z,2.75
2022-08-03T05:15:01.693Z,3.22
2022-08-03T05:17:29.163Z,3.03
2022-08-03T05:19:56.614Z,3.13
2022-08-03T05:22:24.300Z,3.17
2022-08-03T05:24:51.523Z,3.40
2022-08-03T05:27:21.728Z,2.78
2022-08-03T05:29:50.740Z,2.92
2022-08-03T05:32:18.950Z,2.80
2022-08-03T05:34:46.386Z,3.88
2022-08-03T05:37:13.618Z,3.75
2022-08-03T05:39:40.917Z,2.95
2022-08-03T05:42:08.145Z,3.20
2022-08-03T05:44:38.599Z,4.00
2022-08-03T05:47:06.382Z,2.85
2022-08-03T05:49:33.834Z,2.90
2022-08-03T05:52:22.415Z,3.40
2022-08-03T05:54:56.819Z,3.22
2022-08-03T05:57:27.781Z,3.30
2022-08-03T05:59:58.315Z,3.65
2022-08-03T06:02:27.138Z,3.03
2022-08-03T06:04:54.597Z,3.40
2022-08-03T06:07:22.008Z,4.13
2022-08-03T06:10:33.970Z,4.00
2022-08-03T06:12:36.784Z,3.58
2022-08-03T06:15:05.086Z,3.75
2022-08-03T06:17:37.170Z,2.95
2022-08-03T06:20:06.130Z,4.03
2022-08-03T06:22:33.594Z,3.30
2022-08-03T06:25:05.040Z,3.35
2022-08-03T06:27:38.045Z,3.63
2022-08-03T06:30:06.464Z,2.90
2022-08-03T06:32:33.776Z,3.00
2022-08-03T06:35:01.217Z,3.65
2022-08-03T06:37:28.833Z,3.05
2022-08-03T06:39:56.158Z,3.00
2022-08-03T06:42:23.388Z,3.17
2022-08-03T06:44:52.564Z,4.00
2022-08-03T06:47:19.807Z,3.35
2022-08-03T06:50:12.390Z,3.30
2022-08-03T06:52:38.156Z,3.10
2022-08-03T06:55:06.895Z,3.10
2022-08-03T06:57:34.120Z,2.78
2022-08-03T07:00:08.499Z,3.35
2022-08-03T07:02:39.720Z,3.45
2022-08-03T07:05:08.232Z,3.15
2022-08-03T07:07:36.110Z,3.58
2022-08-03T07:10:05.253Z,3.38
2022-08-03T07:12:33.840Z,3.55
2022-08-03T07:15:03.288Z,2.90
2022-08-03T07:17:35.896Z,2.63
2022-08-03T07:20:07.225Z,2.85
2022-08-03T07:22:35.264Z,3.28
2022-08-03T07:25:03.081Z,2.97
2022-08-03T07:27:30.834Z,2.65
2022-08-03T07:29:59.344Z,2.90
2022-08-03T07:32:28.373Z,2.92
2022-08-03T07:35:00.142Z,2.65
2022-08-03T07:37:29.705Z,2.72
2022-08-03T07:39:57.222Z,4.70
2022-08-03T07:42:24.533Z,3.40
2022-08-03T07:44:51.762Z,2.85
2022-08-03T07:47:35.379Z,2.72
2022-08-03T07:50:04.581Z,2.70
2022-08-03T07:52:50.330Z,2.60
2022-08-03T07:55:23.230Z,2.80
2022-08-03T07:58:09.837Z,2.45
2022-08-03T08:00:37.120Z,2.97
2022-08-03T08:03:05.119Z,2.22
2022-08-03T08:05:32.630Z,2.78
2022-08-03T08:08:01.064Z,2.65
2022-08-03T08:10:28.932Z,2.42
2022-08-03T08:12:56.732Z,2.47
2022-08-03T08:15:24.356Z,2.83
2022-08-03T08:17:54.563Z,2.63
2022-08-03T08:20:30.572Z,2.38
2022-08-03T08:23:24.859Z,3.22
2022-08-03T08:25:53.425Z,2.33
2022-08-03T08:28:32.755Z,2.97
2022-08-03T08:31:01.663Z,2.50
2022-08-03T08:33:37.615Z,2.88
2022-08-03T08:36:16.270Z,2.20
2022-08-03T08:38:44.914Z,2.28
2022-08-03T08:41:13.922Z,2.53
2022-08-03T08:43:42.237Z,2.80
2022-08-03T08:46:23.128Z,2.10
2022-08-03T08:48:53.176Z,2.70
2022-08-03T08:51:22.348Z,2.92
2022-08-03T08:53:53.909Z,2.03
2022-08-03T08:56:25.321Z,2.03
2022-08-03T08:58:56.300Z,2.50
2022-08-03T09:01:24.226Z,1.85
2022-08-03T09:03:53.372Z,1.90
2022-08-03T09:06:21.889Z,2.60
2022-08-03T09:08:49.447Z,2.08
2022-08-03T09:11:20.374Z,1.90
2022-08-03T09:14:07.667Z,1.90
2022-08-03T09:16:34.897Z,2.13
2022-08-03T09:19:16.411Z,2.60
2022-08-03T09:21:43.635Z,2.35
2022-08-03T09:24:25.700Z,1.92
2022-08-03T09:27:01.810Z,2.30
2022-08-03T09:29:32.918Z,1.90
2022-08-03T09:32:04.744Z,1.80
2022-08-03T09:34:32.573Z,3.00
2022-08-03T09:36:59.832Z,2.10
2022-08-03T09:39:41.421Z,1.77
2022-08-03T09:42:15.672Z,2.08
2022-08-03T09:44:48.197Z,2.00
2022-08-03T09:47:33.252Z,2.15
2022-08-03T09:50:05.689Z,1.80
2022-08-03T09:52:51.989Z,1.63
2022-08-03T09:56:34.728Z,1.48
2022-08-03T09:58:14.240Z,1.80
2022-08-03T10:01:06.210Z,1.70
2022-08-03T10:04:02.738Z,2.00
2022-08-03T10:06:28.777Z,1.75
2022-08-03T10:09:14.382Z,1.50
2022-08-03T10:11:43.531Z,1.27
2022-08-03T10:14:18.869Z,1.05
2022-08-03T10:16:47.391Z,0.90
2022-08-03T10:19:15.606Z,1.08
2022-08-03T10:21:59.740Z,5.75
2022-08-03T10:24:30.172Z,1.80
2022-08-03T10:27:03.530Z,1.00
2022-08-03T10:29:38.652Z,1.15
2022-08-03T10:32:43.010Z,1.20
2022-08-03T10:35:19.502Z,1.27
2022-08-03T10:38:03.903Z,1.30
2022-08-03T10:40:48.141Z,1.40
2022-08-03T10:43:26.473Z,1.20
2022-08-03T10:45:54.256Z,1.50
2022-08-03T10:48:22.396Z,1.20
2022-08-03T10:50:50.502Z,1.10
2022-08-03T10:53:35.391Z,1.10
2022-08-03T10:56:35.776Z,1.20
2022-08-03T10:59:10.542Z,1.20
2022-08-03T11:02:00.533Z,1.20
2022-08-03T11:04:29.704Z,1.33
2022-08-03T11:07:16.247Z,1.13
2022-08-03T11:09:48.466Z,1.40
2022-08-03T11:12:21.880Z,1.42
2022-08-03T11:15:00.673Z,1.33
2022-08-03T11:17:28.223Z,1.30
2022-08-03T11:19:57.596Z,1.55
2022-08-03T11:22:45.923Z,1.40
2022-08-03T11:25:53.686Z,1.73
2022-08-03T11:28:29.094Z,1.67
2022-08-03T11:31:48.794Z,1.42
2022-08-03T11:34:15.716Z,1.65
2022-08-03T11:37:22.679Z,1.55
2022-08-03T11:39:52.939Z,1.33
2022-08-03T11:42:23.374Z,1.67
2022-08-03T11:44:51.771Z,1.13
2022-08-03T11:47:21.045Z,1.50
2022-08-03T11:49:49.207Z,1.50
2022-08-03T11:52:17.660Z,1.83
2022-08-03T11:54:45.030Z,1.90
2022-08-03T11:57:12.732Z,2.30
2022-08-03T11:59:40.268Z,2.13
2022-08-03T12:02:12.518Z,2.25
2022-08-03T12:05:00.576Z,2.28
2022-08-03T12:08:02.324Z,1.60
2022-08-03T12:10:17.067Z,1.67
2022-08-03T12:12:46.730Z,1.30
2022-08-03T12:15:14.162Z,1.65
2022-08-03T12:17:41.797Z,1.20
2022-08-03T12:20:10.382Z,1.13
2022-08-03T12:22:39.870Z,1.52
2022-08-03T12:25:08.871Z,1.45
2022-08-03T12:27:36.298Z,1.30
2022-08-03T12:30:04.249Z,1.08
2022-08-03T12:32:31.660Z,1.17
2022-08-03T12:35:01.315Z,0.90
2022-08-03T12:37:29.715Z,1.23
2022-08-03T12:40:06.729Z,1.13
2022-08-03T12:42:39.852Z,1.10
2022-08-03T12:45:27.131Z,1.17
2022-08-03T12:47:57.030Z,1.02
2022-08-03T12:50:25.504Z,1.45
2022-08-03T12:52:52.809Z,1.17
2022-08-03T12:55:22.782Z,1.65
2022-08-03T12:57:50.184Z,1.33
2022-08-03T13:00:21.500Z,1.13
2022-08-03T13:05:55.672Z,1.25
2022-08-03T13:08:24.783Z,1.15
2022-08-03T13:10:53.601Z,1.60
2022-08-03T13:13:39.525Z,1.40
2022-08-03T13:16:06.769Z,2.53
2022-08-03T13:18:34.017Z,1.45
2022-08-03T13:21:02.260Z,1.70
2022-08-03T13:23:29.676Z,1.40
2022-08-03T13:25:56.941Z,1.55
2022-08-03T13:28:24.163Z,2.33
2022-08-03T13:30:51.388Z,1.20
2022-08-03T13:33:18.681Z,1.00
2022-08-03T13:35:45.979Z,1.58
2022-08-03T13:38:13.308Z,1.10
2022-08-03T13:40:42.653Z,1.30
2022-08-03T13:43:13.356Z,1.25
2022-08-03T13:45:40.607Z,1.40
2022-08-03T13:48:07.872Z,1.42
2022-08-03T13:50:37.579Z,1.55
2022-08-03T13:53:07.111Z,1.27
2022-08-03T13:55:34.362Z,1.25
2022-08-03T13:58:07.303Z,1.10
2022-08-03T14:00:34.950Z,1.20
2022-08-03T14:03:13.314Z,1.83
2022-08-03T14:05:44.711Z,1.13
2022-08-03T14:08:12.479Z,1.25
2022-08-03T14:10:42.764Z,1.15
2022-08-03T14:13:12.080Z,1.20
2022-08-03T14:15:39.446Z,1.17
2022-08-03T14:18:15.616Z,1.23
2022-08-03T14:20:49.040Z,1.05
2022-08-03T14:23:18.966Z,1.30
2022-08-03T14:25:51.555Z,1.08
2022-08-03T14:28:24.325Z,1.30
2022-08-03T14:30:52.660Z,1.30
2022-08-03T14:33:20.391Z,0.90
2022-08-03T14:35:48.169Z,1.00
2022-08-03T14:38:15.655Z,0.90
2022-08-03T14:40:43.332Z,0.90
2022-08-03T14:43:11.098Z,1.10
2022-08-03T14:45:39.341Z,1.80
2022-08-03T14:50:28.636Z,1.38
2022-08-03T14:50:55.300Z,1.38
2022-08-03T14:53:23.215Z,0.98
2022-08-03T14:55:52.736Z,1.20
2022-08-03T14:58:22.700Z,1.17
2022-08-03T15:00:51.751Z,0.93
2022-08-03T15:03:23.323Z,1.33
2022-08-03T15:05:52.886Z,1.33
2022-08-03T15:08:20.771Z,1.20
2022-08-03T15:10:49.315Z,1.05
2022-08-03T15:13:17.762Z,1.33
2022-08-03T15:15:45.366Z,1.70
2022-08-03T15:18:12.643Z,1.40
2022-08-03T15:20:44.897Z,0.90
2022-08-03T15:23:15.157Z,1.00
2022-08-03T15:26:31.751Z,0.95
2022-08-03T15:28:31.912Z,1.13
2022-08-03T15:30:59.462Z,1.17
2022-08-03T15:33:26.825Z,1.33
2022-08-03T15:35:54.450Z,1.10
2022-08-03T15:38:26.102Z,1.00
2022-08-03T15:40:54.995Z,1.15
2022-08-03T15:43:23.189Z,0.70
2022-08-03T15:46:06.841Z,0.90
2022-08-03T15:48:38.454Z,1.42
2022-08-03T15:51:06.240Z,1.08
2022-08-03T15:53:33.744Z,1.27
2022-08-03T15:56:03.308Z,1.10
2022-08-03T15:59:10.194Z,1.20
2022-08-03T16:01:21.444Z,1.00
2022-08-03T16:03:48.914Z,1.10
2022-08-03T16:06:16.174Z,1.25
2022-08-03T16:08:43.463Z,0.90
2022-08-03T16:11:11.372Z,1.00
2022-08-03T16:14:11.960Z,0.98
2022-08-03T16:16:26.202Z,5.50
2022-08-03T16:18:53.449Z,0.90
2022-08-03T16:21:21.818Z,0.95
2022-08-03T16:23:51.870Z,1.27
2022-08-03T16:26:19.574Z,0.98
2022-08-03T16:28:46.816Z,1.23
2022-08-03T16:31:14.182Z,1.10
2022-08-03T16:33:41.413Z,1.10
2022-08-03T16:36:08.660Z,1.00
2022-08-03T16:38:36.651Z,1.48
2022-08-03T16:41:04.696Z,1.30
2022-08-03T16:43:34.645Z,1.50
2022-08-03T16:46:02.004Z,1.70
2022-08-03T16:48:29.321Z,1.58
2022-08-03T16:50:56.589Z,1.50
2022-08-03T16:53:33.152Z,1.90
2022-08-03T16:56:11.222Z,1.20
2022-08-03T16:58:42.083Z,1.42
2022-08-03T17:01:24.166Z,1.10
2022-08-03T17:04:01.393Z,1.15
2022-08-03T17:06:36.342Z,1.10
2022-08-03T17:09:18.867Z,1.17
2022-08-03T17:11:49.959Z,1.30
2022-08-03T17:14:22.873Z,1.23
2022-08-03T17:17:01.783Z,1.38
2022-08-03T17:19:30.813Z,2.45
2022-08-03T17:22:08.772Z,1.50
2022-08-03T17:24:40.944Z,2.17
2022-08-03T17:28:41.834Z,1.83
2022-08-03T17:30:08.755Z,2.05
2022-08-03T17:32:42.784Z,1.52
2022-08-03T17:35:21.059Z,1.20
2022-08-03T17:37:58.263Z,0.93
2022-08-03T17:40:31.579Z,1.10
2022-08-03T17:43:00.671Z,1.40
2022-08-03T17:45:52.190Z,2.10
2022-08-03T17:48:18.746Z,1.70
2022-08-03T17:51:07.590Z,2.42
2022-08-03T17:54:20.434Z,3.10
2022-08-03T17:56:56.486Z,3.75
2022-08-03T17:59:50.911Z,3.55
2022-08-03T18:02:47.442Z,4.47
2022-08-03T18:05:21.954Z,4.20
2022-08-03T18:08:02.365Z,3.58
2022-08-03T18:10:35.318Z,2.92
2022-08-03T18:13:24.540Z,2.38
2022-08-03T18:16:05.834Z,2.00
2022-08-03T18:18:56.892Z,2.78
2022-08-03T18:21:28.136Z,1.85
2022-08-03T18:24:18.555Z,1.60
2022-08-03T18:26:48.419Z,1.83
2022-08-03T18:29:15.914Z,1.33
2022-08-03T18:32:03.107Z,1.65
2022-08-03T18:34:34.538Z,1.98
2022-08-03T18:37:07.468Z,3.28
2022-08-03T18:39:49.501Z,1.88
2022-08-03T18:42:19.749Z,1.63
2022-08-03T18:44:54.048Z,1.55
2022-08-03T18:47:51.587Z,1.20
2022-08-03T18:50:39.683Z,1.60
2022-08-03T18:54:03.622Z,1.73
2022-08-03T18:56:43.179Z,1.58
2022-08-03T18:59:30.262Z,1.30
2022-08-03T19:02:14.372Z,2.40
2022-08-03T19:04:53.281Z,1.63
2022-08-03T19:07:26.529Z,2.08
2022-08-03T19:09:59.808Z,1.52
2022-08-03T19:12:51.586Z,1.30
2022-08-03T19:15:21.192Z,1.55
2022-08-03T19:18:10.457Z,1.17
2022-08-03T19:20:38.207Z,1.95
2022-08-03T19:23:06.680Z,2.92
2022-08-03T19:25:39.242Z,2.00
2022-08-03T19:28:08.647Z,1.90
2022-08-03T19:30:38.827Z,2.22
2022-08-03T19:33:15.186Z,5.05
2022-08-03T19:35:55.321Z,2.63
2022-08-03T19:38:28.360Z,2.20
2022-08-03T19:40:58.457Z,1.77
2022-08-03T19:43:49.452Z,4.88
2022-08-03T19:46:31.387Z,2.47
2022-08-03T19:49:14.999Z,1.75
2022-08-03T19:52:02.538Z,2.05
2022-08-03T19:54:39.661Z,3.20
2022-08-03T19:57:27.047Z,1.95
2022-08-03T19:59:56.406Z,2.15
2022-08-03T20:02:25.571Z,2.97
2022-08-03T20:04:53.215Z,3.45
2022-08-03T20:07:22.705Z,3.47
2022-08-03T20:09:54.432Z,3.97
2022-08-03T20:12:26.455Z,3.40
2022-08-03T20:14:57.283Z,2.92
2022-08-03T20:17:54.071Z,2.95
2022-08-03T20:20:13.468Z,8.43
2022-08-03T20:22:48.155Z,5.30
2022-08-03T20:25:21.117Z,3.72
2022-08-03T20:28:07.333Z,2.65
2022-08-03T20:30:43.349Z,3.33
2022-08-03T20:33:11.279Z,4.15
2022-08-03T20:35:38.521Z,2.55
2022-08-03T20:38:09.292Z,2.72
2022-08-03T20:40:38.162Z,2.58
2022-08-03T20:43:09.247Z,3.05
2022-08-03T20:45:59.551Z,3.63
2022-08-03T20:48:26.779Z,3.00
2022-08-03T20:50:55.361Z,3.33
2022-08-03T20:53:57.144Z,3.25
2022-08-03T20:56:10.187Z,4.38
2022-08-03T20:58:41.546Z,3.03
2022-08-03T21:01:09.181Z,6.65
2022-08-03T21:03:40.928Z,6.95
2022-08-03T21:06:27.365Z,5.68
2022-08-03T21:09:05.135Z,3.80
2022-08-03T21:11:43.338Z,2.80
2022-08-03T21:14:24.044Z,2.28
2022-08-03T21:16:52.900Z,1.90
2022-08-03T21:19:21.638Z,2.60
2022-08-03T21:21:50.159Z,7.47
2022-08-03T21:24:19.589Z,3.20
2022-08-03T21:26:48.979Z,2.35
2022-08-03T21:29:16.824Z,2.90
2022-08-03T21:31:44.368Z,2.53
2022-08-03T21:34:11.624Z,2.20
2022-08-03T21:36:38.951Z,2.33
2022-08-03T21:39:08.910Z,2.22
2022-08-03T21:41:38.257Z,2.45
2022-08-03T21:44:06.440Z,2.30
2022-08-03T21:46:39.759Z,2.58
2022-08-03T21:50:06.776Z,2.38
2022-08-03T21:52:03.969Z,2.42
2022-08-03T21:54:40.787Z,2.30
2022-08-03T21:57:34.866Z,2.50
2022-08-03T22:00:17.242Z,2.47
2022-08-03T22:02:53.017Z,3.63
2022-08-03T22:05:29.183Z,2.95
2022-08-03T22:08:12.661Z,9.27
2022-08-03T22:10:40.439Z,5.25
2022-08-03T22:13:07.772Z,3.47
2022-08-03T22:15:35.259Z,3.38
2022-08-03T22:18:03.646Z,2.47
2022-08-03T22:20:31.321Z,2.40
2022-08-03T22:23:02.734Z,2.40
2022-08-03T22:25:35.775Z,2.40
2022-08-03T22:28:07.287Z,2.40
2022-08-03T22:30:35.459Z,2.25
2022-08-03T22:33:05.529Z,2.28
2022-08-03T22:35:49.238Z,1.98
2022-08-03T22:38:19.459Z,2.20
2022-08-03T22:40:48.951Z,2.08
2022-08-03T22:43:16.807Z,2.08
2022-08-03T22:46:10.405Z,1.77
2022-08-03T22:48:41.201Z,1.88
2022-08-03T22:51:09.878Z,1.80
2022-08-03T22:53:38.924Z,1.90
2022-08-03T22:56:06.982Z,1.75
2022-08-03T22:58:34.235Z,2.20
2022-08-03T23:01:08.574Z,1.90
2022-08-03T23:04:00.805Z,1.52
2022-08-03T23:06:36.908Z,1.73
2022-08-03T23:09:10.267Z,1.98
2022-08-03T23:11:45.607Z,1.90
2022-08-03T23:14:16.049Z,1.65
2022-08-03T23:16:44.411Z,1.42
2022-08-03T23:19:17.170Z,1.50
2022-08-03T23:22:02.226Z,2.10
2022-08-03T23:24:35.642Z,1.50
2022-08-03T23:27:07.555Z,1.45
2022-08-03T23:29:36.711Z,1.85
2022-08-03T23:32:05.587Z,1.80
2022-08-03T23:34:52.166Z,1.52
2022-08-03T23:37:22.543Z,1.52
2022-08-03T23:39:50.020Z,1.75
2022-08-03T23:42:19.489Z,1.90
2022-08-03T23:44:47.132Z,1.60
2022-08-03T23:47:14.372Z,2.20
2022-08-03T23:49:41.658Z,2.13
2022-08-03T23:52:33.287Z,2.10
2022-08-03T23:55:16.525Z,1.83
2022-08-03T23:57:52.152Z,2.15
